createdAt,value
2019-04-14T00:02:33.640Z,85.85
2019-04-14T00:05:04.643Z,85.27
2019-04-14T00:07:34.069Z,87.04
2019-04-14T00:10:07.375Z,87.19
2019-04-14T00:12:38.312Z,87.17
2019-04-14T00:15:23.489Z,87.84
2019-04-14T00:17:41.812Z,87.48
2019-04-14T00:20:12.036Z,86.47
2019-04-14T00:22:42.408Z,87.42
2019-04-14T00:25:15.143Z,87.20
2019-04-14T00:27:45.574Z,87.19
2019-04-14T00:30:14.854Z,87.61
2019-04-14T00:32:48.790Z,87.82
2019-04-14T00:35:36.419Z,88.08
2019-04-14T00:38:32.337Z,87.97
2019-04-14T00:41:07.274Z,88.20
2019-04-14T00:43:48.401Z,86.72
2019-04-14T00:46:21.293Z,87.55
2019-04-14T00:48:53.812Z,85.63
2019-04-14T00:51:22.979Z,85.24
2019-04-14T00:53:52.038Z,86.74
2019-04-14T00:56:23.382Z,86.81
2019-04-14T00:58:53.943Z,87.03
2019-04-14T01:01:24.277Z,87.71
2019-04-14T01:03:54.732Z,87.82
2019-04-14T01:06:25.131Z,87.28
2019-04-14T01:08:55.312Z,87.94
2019-04-14T01:11:24.891Z,88.03
2019-04-14T01:13:55.024Z,87.47
2019-04-14T01:16:27.029Z,87.39
2019-04-14T01:18:56.449Z,87.81
2019-04-14T01:21:26.365Z,86.83
2019-04-14T01:23:56.613Z,86.48
2019-04-14T01:26:27.056Z,86.11
2019-04-14T01:28:59.327Z,86.40
2019-04-14T01:31:29.547Z,86.47
2019-04-14T01:33:59.798Z,87.08
2019-04-14T01:36:30.302Z,85.63
2019-04-14T01:39:00.992Z,86.15
2019-04-14T01:41:30.327Z,85.78
2019-04-14T01:44:00.334Z,86.16
2019-04-14T01:46:34.271Z,85.42
2019-04-14T01:49:03.331Z,85.48
2019-04-14T01:51:41.737Z,86.73
2019-04-14T01:54:28.541Z,84.91
2019-04-14T01:57:17.634Z,84.95
2019-04-14T01:59:46.751Z,84.87
2019-04-14T02:02:18.899Z,85.50
2019-04-14T02:04:49.109Z,84.56
2019-04-14T02:07:20.895Z,84.78
2019-04-14T02:09:51.091Z,84.27
2019-04-14T02:12:21.319Z,84.71
2019-04-14T02:14:52.016Z,85.71
2019-04-14T02:17:22.041Z,84.06
2019-04-14T02:19:52.385Z,85.04
2019-04-14T02:22:22.379Z,85.56
2019-04-14T02:24:52.686Z,86.12
2019-04-14T02:27:23.062Z,85.64
2019-04-14T02:29:52.284Z,85.42
2019-04-14T02:32:49.418Z,85.44
2019-04-14T02:37:58.558Z,86.22
2019-04-14T02:43:03.925Z,86.53
2019-04-14T02:45:29.566Z,86.40
2019-04-14T02:48:05.680Z,86.87
2019-04-14T02:53:01.684Z,87.11
2019-04-14T02:55:21.198Z,86.51
2019-04-14T03:00:31.787Z,87.68
2019-04-14T03:02:59.553Z,88.29
2019-04-14T03:05:26.494Z,88.36
2019-04-14T03:07:59.876Z,89.42
2019-04-14T03:10:35.725Z,90.13
2019-04-14T03:13:05.691Z,91.57
2019-04-14T03:15:43.551Z,90.69
2019-04-14T03:21:15.497Z,93.45
2019-04-14T03:23:57.866Z,93.46
2019-04-14T03:26:27.144Z,93.40
2019-04-14T03:28:56.523Z,93.67
2019-04-14T03:31:53.726Z,93.76
2019-04-14T03:37:16.185Z,94.67
2019-04-14T03:41:40.413Z,94.37
2019-04-14T03:44:03.245Z,94.52
2019-04-14T03:49:26.265Z,92.36
2019-04-14T03:51:44.587Z,93.10
2019-04-14T03:54:03.272Z,93.57
2019-04-14T03:56:46.793Z,93.57
2019-04-14T03:59:17.497Z,93.27
2019-04-14T04:01:47.892Z,93.20
2019-04-14T04:04:18.242Z,92.45
2019-04-14T04:06:48.728Z,92.85
2019-04-14T04:09:19.181Z,93.01
2019-04-14T04:11:49.734Z,93.49
2019-04-14T04:14:22.370Z,92.94
2019-04-14T04:17:08.056Z,93.19
2019-04-14T04:19:45.228Z,93.07
2019-04-14T04:22:33.262Z,93.16
2019-04-14T04:25:13.948Z,92.46
2019-04-14T04:28:01.595Z,91.57
2019-04-14T04:30:51.623Z,92.47
2019-04-14T04:33:43.620Z,92.86
2019-04-14T04:36:31.099Z,93.14
2019-04-14T04:39:23.589Z,93.70
2019-04-14T04:41:53.736Z,94.11
2019-04-14T04:44:22.859Z,94.18
2019-04-14T04:46:52.716Z,94.00
2019-04-14T04:49:26.496Z,93.14
2019-04-14T04:51:55.043Z,93.43
2019-04-14T04:54:24.269Z,92.39
2019-04-14T04:56:53.753Z,91.73
2019-04-14T04:59:25.558Z,91.05
2019-04-14T05:01:55.823Z,91.72
2019-04-14T05:04:25.019Z,90.16
2019-04-14T05:06:59.294Z,90.16
2019-04-14T05:09:51.214Z,89.82
2019-04-14T05:12:48.231Z,88.70
2019-04-14T05:15:40.323Z,89.94
2019-04-14T05:18:14.278Z,91.18
2019-04-14T05:20:48.674Z,90.95
2019-04-14T05:23:19.003Z,89.90
2019-04-14T05:25:49.416Z,91.08
2019-04-14T05:28:20.241Z,88.88
2019-04-14T05:30:50.392Z,89.33
2019-04-14T05:33:20.621Z,88.08
2019-04-14T05:35:50.951Z,89.97
2019-04-14T05:38:21.963Z,91.65
2019-04-14T05:40:52.191Z,90.71
2019-04-14T05:43:32.265Z,90.92
2019-04-14T05:45:52.325Z,90.64
2019-04-14T05:48:22.925Z,91.81
2019-04-14T05:50:53.959Z,90.03
2019-04-14T05:53:24.077Z,90.41
2019-04-14T05:55:53.175Z,90.80
2019-04-14T05:58:23.811Z,91.84
2019-04-14T06:00:53.930Z,92.50
2019-04-14T06:03:23.439Z,92.30
2019-04-14T06:05:52.918Z,90.49
2019-04-14T06:08:22.295Z,89.95
2019-04-14T06:10:51.635Z,91.09
2019-04-14T06:13:20.917Z,92.13
2019-04-14T06:15:50.817Z,90.21
2019-04-14T06:18:19.849Z,89.46
2019-04-14T06:20:48.904Z,89.71
2019-04-14T06:23:18.158Z,89.27
2019-04-14T06:25:47.689Z,88.70
2019-04-14T06:28:17.086Z,88.07
2019-04-14T06:31:03.596Z,87.84
2019-04-14T06:33:50.388Z,84.66
2019-04-14T06:36:37.606Z,82.23
2019-04-14T06:39:11.197Z,82.35
2019-04-14T06:41:40.205Z,84.07
2019-04-14T06:44:09.278Z,86.84
2019-04-14T06:46:40.036Z,87.45
2019-04-14T06:49:09.156Z,88.69
2019-04-14T06:51:38.221Z,86.40
2019-04-14T06:54:07.520Z,88.24
2019-04-14T06:56:36.622Z,87.62
2019-04-14T06:59:05.734Z,86.24
2019-04-14T07:01:34.832Z,87.04
2019-04-14T07:04:03.943Z,87.71
2019-04-14T07:06:32.991Z,86.35
2019-04-14T07:09:02.240Z,87.23
2019-04-14T07:11:35.612Z,87.33
2019-04-14T07:14:04.868Z,87.37
2019-04-14T07:16:33.909Z,87.84
2019-04-14T07:19:03.336Z,89.00
2019-04-14T07:21:32.394Z,88.65
2019-04-14T07:24:01.458Z,87.73
2019-04-14T07:26:30.552Z,88.20
2019-04-14T07:28:59.980Z,88.06
2019-04-14T07:31:54.020Z,88.99
2019-04-14T07:34:31.014Z,88.56
2019-04-14T07:37:25.073Z,89.04
2019-04-14T07:40:24.218Z,87.39
2019-04-14T07:43:04.057Z,87.56
2019-04-14T07:46:01.176Z,87.11
2019-04-14T07:48:37.675Z,88.11
2019-04-14T07:51:21.742Z,86.69
2019-04-14T07:54:06.480Z,87.40
2019-04-14T07:57:00.652Z,86.05
2019-04-14T07:59:44.723Z,85.06
2019-04-14T08:02:41.733Z,83.36
2019-04-14T08:05:14.091Z,83.16
2019-04-14T08:07:46.065Z,82.09
2019-04-14T08:10:15.219Z,83.09
2019-04-14T08:12:44.349Z,82.28
2019-04-14T08:15:13.395Z,80.59
2019-04-14T08:17:44.161Z,81.39
2019-04-14T08:20:13.256Z,82.35
2019-04-14T08:22:42.301Z,83.62
2019-04-14T08:25:11.401Z,81.35
2019-04-14T08:27:40.480Z,79.38
2019-04-14T08:30:09.892Z,78.64
2019-04-14T08:32:38.929Z,79.79
2019-04-14T08:35:10.395Z,78.99
2019-04-14T08:37:39.478Z,78.78
2019-04-14T08:40:08.499Z,76.17
2019-04-14T08:43:07.836Z,77.91
2019-04-14T08:45:52.507Z,77.67
2019-04-14T08:48:52.802Z,78.52
2019-04-14T08:54:36.410Z,74.47
2019-04-14T08:57:36.746Z,72.89
2019-04-14T09:00:16.919Z,71.71
2019-04-14T09:03:11.815Z,71.85
2019-04-14T09:05:45.864Z,69.62
2019-04-14T09:08:19.830Z,72.78
2019-04-14T09:10:52.014Z,70.83
2019-04-14T09:13:21.142Z,69.68
2019-04-14T09:15:52.538Z,69.49
2019-04-14T09:18:21.585Z,70.93
2019-04-14T09:20:52.904Z,70.65
2019-04-14T09:23:22.001Z,71.50
2019-04-14T09:25:51.070Z,72.71
2019-04-14T09:28:20.247Z,73.41
2019-04-14T09:30:49.294Z,73.45
2019-04-14T09:33:18.577Z,73.47
2019-04-14T09:35:47.643Z,71.26
2019-04-14T09:38:16.793Z,69.98
2019-04-14T09:40:45.814Z,71.27
2019-04-14T09:43:17.166Z,70.17
2019-04-14T09:45:46.264Z,69.89
2019-04-14T09:48:15.347Z,69.50
2019-04-14T09:50:44.709Z,70.76
2019-04-14T09:53:13.813Z,70.09
2019-04-14T09:55:43.204Z,80.93
2019-04-14T09:58:12.400Z,67.34
2019-04-14T10:00:41.634Z,70.19
2019-04-14T10:03:10.845Z,71.08
2019-04-14T10:05:39.952Z,71.22
2019-04-14T10:08:09.219Z,70.23
2019-04-14T10:10:38.325Z,68.16
2019-04-14T10:13:07.408Z,71.14
2019-04-14T10:15:36.477Z,69.58
2019-04-14T10:18:05.544Z,69.16
2019-04-14T10:20:34.570Z,69.15
2019-04-14T10:23:03.644Z,67.21
2019-04-14T10:25:32.662Z,67.40
2019-04-14T10:28:01.759Z,68.67
2019-04-14T10:30:30.823Z,68.45
2019-04-14T10:32:59.915Z,63.62
2019-04-14T10:35:28.961Z,62.46
2019-04-14T10:37:58.048Z,59.24
2019-04-14T10:40:27.110Z,58.81
2019-04-14T10:42:56.179Z,55.79
2019-04-14T10:45:25.200Z,55.05
2019-04-14T10:47:54.273Z,59.70
2019-04-14T10:50:30.592Z,56.69
2019-04-14T10:52:54.042Z,58.19
2019-04-14T10:55:23.671Z,58.85
2019-04-14T10:57:52.718Z,56.37
2019-04-14T11:00:21.806Z,57.04
2019-04-14T11:02:50.852Z,55.93
2019-04-14T11:05:20.041Z,53.23
2019-04-14T11:07:49.161Z,51.06
2019-04-14T11:10:18.203Z,53.89
2019-04-14T11:12:47.223Z,52.68
2019-04-14T11:15:16.291Z,55.37
2019-04-14T11:17:45.333Z,53.05
2019-04-14T11:20:14.406Z,52.81
2019-04-14T11:23:04.023Z,51.41
2019-04-14T11:25:34.141Z,51.65
2019-04-14T11:28:03.286Z,50.32
2019-04-14T11:30:35.376Z,53.06
2019-04-14T11:33:12.281Z,53.29
2019-04-14T11:35:59.124Z,50.01
2019-04-14T11:38:36.104Z,50.69
2019-04-14T11:41:08.909Z,49.36
2019-04-14T11:43:38.032Z,54.78
2019-04-14T11:46:07.421Z,56.38
2019-04-14T11:48:37.484Z,55.53
2019-04-14T11:51:06.512Z,51.55
2019-04-14T11:53:36.139Z,51.54
2019-04-14T11:56:05.223Z,47.96
2019-04-14T11:58:34.242Z,48.25
2019-04-14T12:01:28.219Z,49.06
2019-04-14T12:04:15.299Z,48.33
2019-04-14T12:07:12.212Z,47.00
2019-04-14T12:09:48.594Z,46.80
2019-04-14T12:12:17.612Z,46.18
2019-04-14T12:14:46.792Z,44.76
2019-04-14T12:17:15.923Z,52.20
2019-04-14T12:19:45.002Z,54.05
2019-04-14T12:22:14.020Z,54.59
2019-04-14T12:24:46.592Z,57.35
2019-04-14T12:27:15.733Z,57.66
2019-04-14T12:29:45.781Z,53.77
2019-04-14T12:32:17.243Z,49.07
2019-04-14T12:34:49.862Z,46.68
2019-04-14T12:37:18.975Z,46.49
2019-04-14T12:39:48.070Z,46.50
2019-04-14T12:42:37.349Z,43.97
2019-04-14T12:45:32.640Z,46.25
2019-04-14T12:48:23.738Z,45.71
2019-04-14T12:50:56.471Z,43.36
2019-04-14T12:53:25.598Z,42.88
2019-04-14T12:55:54.752Z,41.33
2019-04-14T12:58:32.836Z,39.56
2019-04-14T13:01:07.720Z,44.59
2019-04-14T13:03:38.586Z,48.81
2019-04-14T13:06:07.772Z,49.52
2019-04-14T13:08:37.412Z,49.65
2019-04-14T13:11:07.790Z,48.97
2019-04-14T13:13:36.843Z,49.38
2019-04-14T13:16:07.121Z,47.46
2019-04-14T13:18:36.200Z,47.65
2019-04-14T13:21:05.482Z,46.33
2019-04-14T13:23:34.526Z,42.91
2019-04-14T13:26:03.579Z,44.04
2019-04-14T13:28:32.625Z,42.62
2019-04-14T13:31:01.774Z,42.62
2019-04-14T13:33:30.758Z,44.66
2019-04-14T13:35:59.927Z,42.56
2019-04-14T13:38:29.057Z,44.06
2019-04-14T13:40:58.119Z,45.40
2019-04-14T13:43:27.185Z,45.33
2019-04-14T13:45:56.333Z,44.68
2019-04-14T13:48:25.539Z,42.80
2019-04-14T13:50:54.716Z,41.92
2019-04-14T13:53:23.853Z,42.03
2019-04-14T13:55:52.903Z,43.23
2019-04-14T13:58:23.847Z,43.02
2019-04-14T14:00:53.031Z,44.44
2019-04-14T14:03:22.402Z,42.95
2019-04-14T14:05:52.180Z,41.51
2019-04-14T14:08:21.219Z,41.69
2019-04-14T14:10:54.726Z,41.17
2019-04-14T14:13:51.767Z,40.07
2019-04-14T14:16:47.886Z,41.12
2019-04-14T14:19:42.308Z,41.37
2019-04-14T14:22:27.148Z,39.92
2019-04-14T14:25:02.292Z,39.60
2019-04-14T14:27:32.912Z,40.90
2019-04-14T14:30:02.114Z,39.90
2019-04-14T14:32:33.922Z,40.70
2019-04-14T14:35:03.183Z,40.83
2019-04-14T14:37:32.532Z,39.89
2019-04-14T14:40:01.596Z,39.97
2019-04-14T14:42:30.967Z,40.26
2019-04-14T14:45:34.226Z,39.40
2019-04-14T14:48:33.700Z,39.13
2019-04-14T14:51:10.817Z,39.98
2019-04-14T14:53:39.981Z,39.07
2019-04-14T14:56:09.109Z,40.05
2019-04-14T14:58:38.616Z,40.36
2019-04-14T15:01:08.323Z,39.08
2019-04-14T15:03:37.371Z,42.98
2019-04-14T15:06:06.498Z,43.35
2019-04-14T15:08:35.560Z,44.51
2019-04-14T15:11:04.811Z,45.19
2019-04-14T15:13:33.906Z,43.52
2019-04-14T15:16:03.105Z,43.73
2019-04-14T15:18:32.096Z,43.67
2019-04-14T15:21:01.139Z,45.05
2019-04-14T15:23:30.310Z,44.77
2019-04-14T15:25:59.324Z,45.75
2019-04-14T15:28:28.513Z,46.13
2019-04-14T15:30:57.586Z,45.80
2019-04-14T15:33:26.663Z,45.17
2019-04-14T15:35:55.796Z,43.71
2019-04-14T15:38:24.904Z,44.43
2019-04-14T15:40:53.970Z,43.44
2019-04-14T15:43:23.109Z,44.05
2019-04-14T15:45:54.447Z,42.46
2019-04-14T15:48:26.255Z,43.28
2019-04-14T15:50:57.082Z,43.86
2019-04-14T15:53:37.697Z,43.80
2019-04-14T15:56:02.200Z,44.97
2019-04-14T15:58:50.988Z,45.19
2019-04-14T16:01:51.224Z,44.73
2019-04-14T16:04:27.931Z,44.40
2019-04-14T16:07:31.477Z,45.12
2019-04-14T16:10:31.303Z,45.59
2019-04-14T16:13:07.962Z,44.75
2019-04-14T16:16:04.872Z,43.47
2019-04-14T16:18:58.987Z,43.42
2019-04-14T16:21:28.115Z,43.50
2019-04-14T16:23:57.270Z,43.69
2019-04-14T16:26:34.500Z,44.06
2019-04-14T16:29:21.787Z,43.38
2019-04-14T16:32:24.929Z,44.12
2019-04-14T16:34:57.574Z,43.80
2019-04-14T16:37:27.141Z,43.97
2019-04-14T16:39:56.454Z,44.44
2019-04-14T16:42:25.629Z,44.05
2019-04-14T16:44:54.677Z,43.99
2019-04-14T16:47:23.822Z,43.01
2019-04-14T16:49:53.317Z,43.79
2019-04-14T16:52:30.462Z,43.99
2019-04-14T16:55:06.961Z,44.64
2019-04-14T16:57:54.024Z,43.83
2019-04-14T17:00:28.763Z,43.86
2019-04-14T17:02:57.858Z,44.76
2019-04-14T17:05:26.897Z,44.14
2019-04-14T17:07:55.961Z,44.71
2019-04-14T17:10:26.149Z,45.85
2019-04-14T17:12:55.363Z,45.26
2019-04-14T17:15:49.745Z,45.89
2019-04-14T17:18:48.665Z,46.26
2019-04-14T17:21:35.047Z,46.63
2019-04-14T17:24:21.915Z,46.45
2019-04-14T17:27:08.010Z,46.74
2019-04-14T17:29:59.059Z,47.55
2019-04-14T17:32:42.380Z,47.82
2019-04-14T17:35:35.042Z,47.45
2019-04-14T17:38:11.043Z,47.41
2019-04-14T17:40:49.642Z,47.07
2019-04-14T17:43:32.051Z,47.26
2019-04-14T17:46:19.819Z,47.42
2019-04-14T17:49:13.956Z,48.20
2019-04-14T17:51:48.437Z,48.49
2019-04-14T17:54:29.935Z,48.21
2019-04-14T17:57:18.310Z,49.12
2019-04-14T18:00:04.397Z,49.79
2019-04-14T18:03:04.730Z,49.56
2019-04-14T18:05:46.231Z,49.64
2019-04-14T18:08:26.935Z,49.71
2019-04-14T18:11:02.164Z,50.01
2019-04-14T18:13:37.319Z,50.39
2019-04-14T18:16:27.812Z,50.51
2019-04-14T18:19:29.234Z,50.36
2019-04-14T18:21:58.420Z,51.14
2019-04-14T18:24:27.599Z,52.32
2019-04-14T18:26:56.673Z,52.06
2019-04-14T18:29:53.999Z,52.45
2019-04-14T18:32:30.954Z,53.42
2019-04-14T18:35:17.833Z,54.11
2019-04-14T18:38:14.900Z,54.10
2019-04-14T18:41:02.918Z,54.12
2019-04-14T18:43:57.162Z,56.19
2019-04-14T18:46:37.070Z,54.54
2019-04-14T18:49:31.289Z,55.06
2019-04-14T18:52:28.177Z,54.81
2019-04-14T18:55:25.817Z,55.94
2019-04-14T18:58:13.079Z,56.39
2019-04-14T19:00:54.308Z,57.13
2019-04-14T19:03:24.207Z,57.66
2019-04-14T19:06:08.493Z,58.92
2019-04-14T19:08:39.292Z,59.15
2019-04-14T19:11:41.985Z,58.38
2019-04-14T19:14:13.532Z,58.04
2019-04-14T19:16:45.921Z,58.33
2019-04-14T19:19:15.839Z,58.45
2019-04-14T19:21:44.896Z,58.86
2019-04-14T19:24:15.290Z,59.41
2019-04-14T19:26:44.456Z,60.25
2019-04-14T19:29:13.554Z,60.31
2019-04-14T19:31:42.677Z,60.19
2019-04-14T19:34:14.053Z,60.09
2019-04-14T19:36:43.287Z,60.37
2019-04-14T19:39:12.425Z,61.56
2019-04-14T19:41:41.470Z,61.37
2019-04-14T19:44:11.229Z,61.72
2019-04-14T19:46:42.888Z,62.84
2019-04-14T19:49:12.073Z,63.46
2019-04-14T19:51:41.410Z,64.27
2019-04-14T19:54:10.781Z,63.72
2019-04-14T19:56:42.165Z,64.57
2019-04-14T19:59:11.328Z,64.18
2019-04-14T20:01:40.774Z,64.33
2019-04-14T20:04:10.374Z,65.22
2019-04-14T20:06:39.476Z,64.92
2019-04-14T20:09:10.778Z,65.62
2019-04-14T20:11:40.027Z,65.69
2019-04-14T20:14:09.166Z,66.45
2019-04-14T20:17:02.581Z,66.76
2019-04-14T20:19:51.268Z,66.97
2019-04-14T20:22:31.443Z,67.20
2019-04-14T20:25:19.312Z,67.93
2019-04-14T20:27:53.336Z,67.41
2019-04-14T20:30:41.301Z,68.42
2019-04-14T20:33:14.418Z,69.41
2019-04-14T20:35:43.486Z,69.68
2019-04-14T20:38:13.186Z,69.96
2019-04-14T20:40:45.889Z,69.76
2019-04-14T20:43:17.662Z,70.42
2019-04-14T20:45:47.439Z,71.13
2019-04-14T20:48:19.059Z,71.12
2019-04-14T20:50:49.376Z,71.43
2019-04-14T20:53:18.479Z,72.31
2019-04-14T20:55:47.894Z,73.20
2019-04-14T20:58:16.988Z,73.16
2019-04-14T21:00:46.129Z,73.95
2019-04-14T21:03:26.734Z,73.63
2019-04-14T21:06:05.705Z,74.08
2019-04-14T21:08:52.578Z,74.43
2019-04-14T21:11:27.991Z,74.78
2019-04-14T21:14:12.852Z,74.74
2019-04-14T21:16:43.940Z,74.31
2019-04-14T21:19:26.674Z,74.73
2019-04-14T21:22:24.004Z,74.57
2019-04-14T21:24:59.416Z,75.36
2019-04-14T21:27:53.218Z,75.62
2019-04-14T21:30:34.355Z,76.32
2019-04-14T21:33:15.604Z,77.04
2019-04-14T21:35:54.826Z,77.35
2019-04-14T21:38:48.941Z,76.86
2019-04-14T21:41:23.992Z,77.29
2019-04-14T21:43:53.092Z,77.55
2019-04-14T21:46:22.108Z,77.65
2019-04-14T21:48:51.197Z,78.04
2019-04-14T21:51:24.350Z,78.30
2019-04-14T21:53:55.000Z,78.60
2019-04-14T21:56:25.684Z,79.02
2019-04-14T21:59:13.516Z,79.15
2019-04-14T22:02:00.362Z,78.86
2019-04-14T22:05:06.826Z,79.71
2019-04-14T22:08:03.862Z,78.91
2019-04-14T22:10:37.238Z,79.62
2019-04-14T22:13:06.325Z,80.15
2019-04-14T22:15:35.371Z,80.43
2019-04-14T22:18:06.277Z,80.89
2019-04-14T22:20:35.524Z,80.20
2019-04-14T22:23:06.503Z,81.57
2019-04-14T22:25:37.986Z,80.99
2019-04-14T22:28:07.380Z,81.17
2019-04-14T22:30:36.526Z,79.88
2019-04-14T22:33:07.813Z,80.06
2019-04-14T22:35:36.865Z,80.65
2019-04-14T22:38:06.058Z,80.94
2019-04-14T22:40:36.656Z,80.80
2019-04-14T22:43:05.750Z,80.63
2019-04-14T22:45:34.926Z,80.50
2019-04-14T22:48:04.286Z,80.36
2019-04-14T22:50:33.373Z,81.72
2019-04-14T22:53:02.417Z,82.59
2019-04-14T22:55:33.539Z,81.03
2019-04-14T22:58:02.572Z,80.81
2019-04-14T23:00:42.127Z,80.63
2019-04-14T23:03:42.524Z,81.13
2019-04-14T23:06:35.892Z,81.45
2019-04-14T23:09:24.319Z,82.15
2019-04-14T23:12:27.351Z,81.69
2019-04-14T23:15:21.207Z,82.13
2019-04-14T23:18:04.998Z,82.16
2019-04-14T23:20:53.686Z,82.20
2019-04-14T23:23:54.007Z,82.51
2019-04-14T23:26:23.085Z,82.86
2019-04-14T23:28:54.425Z,82.69
2019-04-14T23:31:23.469Z,82.54
2019-04-14T23:33:52.515Z,82.26
2019-04-14T23:36:21.590Z,82.83
2019-04-14T23:38:50.651Z,82.36
2019-04-14T23:41:19.723Z,83.72
2019-04-14T23:43:50.803Z,82.78
2019-04-14T23:46:19.906Z,82.35
2019-04-14T23:48:48.911Z,82.71
2019-04-14T23:51:18.020Z,83.14
2019-04-14T23:53:47.088Z,83.12
2019-04-14T23:56:18.173Z,83.18
2019-04-14T23:58:47.237Z,83.30
